createdAt,value
2023-07-30T00:02:22.544Z,23.23
2023-07-30T00:04:49.456Z,27.90
2023-07-30T00:07:16.196Z,29.98
2023-07-30T00:09:42.976Z,36.38
2023-07-30T00:12:10.372Z,34.88
2023-07-30T00:14:39.425Z,27.35
2023-07-30T00:17:06.265Z,34.63
2023-07-30T00:19:33.030Z,31.67
2023-07-30T00:21:59.785Z,36.03
2023-07-30T00:24:26.593Z,23.85
2023-07-30T00:26:53.334Z,40.72
2023-07-30T00:29:20.674Z,30.08
2023-07-30T00:31:47.445Z,37.58
2023-07-30T00:34:14.260Z,38.08
2023-07-30T00:36:41.910Z,41.78
2023-07-30T00:39:09.009Z,35.25
2023-07-30T00:41:36.520Z,36.75
2023-07-30T00:44:03.484Z,38.45
2023-07-30T00:46:30.293Z,44.17
2023-07-30T00:48:58.133Z,42.78
2023-07-30T00:51:25.540Z,41.92
2023-07-30T00:53:52.548Z,39.33
2023-07-30T00:56:19.340Z,35.88
2023-07-30T00:58:48.050Z,36.13
2023-07-30T01:01:14.937Z,37.30
2023-07-30T01:03:41.934Z,40.83
2023-07-30T01:06:08.781Z,40.92
2023-07-30T01:08:36.102Z,35.65
2023-07-30T01:11:04.078Z,41.08
2023-07-30T01:13:32.447Z,38.97
2023-07-30T01:15:59.549Z,41.47
2023-07-30T01:18:26.392Z,32.88
2023-07-30T01:20:54.691Z,41.00
2023-07-30T01:23:21.478Z,30.83
2023-07-30T01:25:50.252Z,36.55
2023-07-30T01:28:19.289Z,33.63
2023-07-30T01:30:47.214Z,38.15
2023-07-30T01:33:14.032Z,34.50
2023-07-30T01:35:42.963Z,37.72
2023-07-30T01:38:10.138Z,41.75
2023-07-30T01:40:36.944Z,35.33
2023-07-30T01:43:03.745Z,34.60
2023-07-30T01:45:30.520Z,37.03
2023-07-30T01:47:57.337Z,39.33
2023-07-30T01:50:24.089Z,45.35
2023-07-30T01:52:50.839Z,36.25
2023-07-30T01:55:22.823Z,37.15
2023-07-30T01:57:50.746Z,34.75
2023-07-30T02:00:17.557Z,41.30
2023-07-30T02:02:44.385Z,35.95
2023-07-30T02:05:11.139Z,48.05
2023-07-30T02:07:40.345Z,27.77
2023-07-30T02:10:07.440Z,41.08
2023-07-30T02:12:35.290Z,35.53
2023-07-30T02:15:02.073Z,33.08
2023-07-30T02:17:28.831Z,38.03
2023-07-30T02:19:55.578Z,40.10
2023-07-30T02:22:22.483Z,28.90
2023-07-30T02:24:49.235Z,37.33
2023-07-30T02:27:15.952Z,37.90
2023-07-30T02:29:43.803Z,33.95
2023-07-30T02:32:10.561Z,37.00
2023-07-30T02:34:37.693Z,37.22
2023-07-30T02:37:07.254Z,29.95
2023-07-30T02:39:33.963Z,34.67
2023-07-30T02:42:00.661Z,31.50
2023-07-30T02:44:27.452Z,31.75
2023-07-30T02:46:54.143Z,39.42
2023-07-30T02:49:20.897Z,34.63
2023-07-30T02:51:49.772Z,40.92
2023-07-30T02:54:21.996Z,34.13
2023-07-30T02:56:48.924Z,28.83
2023-07-30T02:59:15.611Z,39.63
2023-07-30T03:01:42.523Z,36.90
2023-07-30T03:04:09.453Z,28.08
2023-07-30T03:06:36.225Z,28.80
2023-07-30T03:09:03.883Z,33.78
2023-07-30T03:11:30.650Z,35.15
2023-07-30T03:13:58.697Z,25.55
2023-07-30T03:16:26.239Z,26.65
2023-07-30T03:18:52.955Z,30.15
2023-07-30T03:21:19.668Z,26.33
2023-07-30T03:23:49.428Z,33.22
2023-07-30T03:26:16.189Z,27.23
2023-07-30T03:28:42.991Z,26.88
2023-07-30T03:31:09.806Z,19.92
2023-07-30T03:33:36.745Z,20.60
2023-07-30T03:36:03.640Z,21.90
2023-07-30T03:38:30.345Z,24.20
2023-07-30T03:40:58.321Z,17.60
2023-07-30T03:43:25.006Z,19.05
2023-07-30T03:45:51.704Z,23.30
2023-07-30T03:48:18.420Z,18.88
2023-07-30T03:50:45.214Z,14.60
2023-07-30T03:53:12.590Z,12.90
2023-07-30T03:55:39.419Z,12.50
2023-07-30T03:58:06.218Z,11.20
2023-07-30T04:00:33.662Z,14.05
2023-07-30T04:03:00.589Z,8.88
2023-07-30T04:05:29.460Z,13.93
2023-07-30T04:07:56.186Z,13.40
2023-07-30T04:10:23.028Z,16.02
2023-07-30T04:12:49.851Z,16.13
2023-07-30T04:15:17.344Z,9.05
2023-07-30T04:17:44.172Z,8.27
2023-07-30T04:20:11.240Z,12.20
2023-07-30T04:22:38.197Z,10.88
2023-07-30T04:25:08.830Z,9.18
2023-07-30T04:27:35.789Z,12.25
2023-07-30T04:30:02.478Z,10.80
2023-07-30T04:32:29.300Z,12.93
2023-07-30T04:34:57.293Z,11.48
2023-07-30T04:37:24.061Z,13.38
2023-07-30T04:39:52.766Z,15.55
2023-07-30T04:42:19.652Z,14.85
2023-07-30T04:44:46.439Z,12.75
2023-07-30T04:47:16.231Z,14.80
2023-07-30T04:49:43.315Z,16.23
2023-07-30T04:52:10.087Z,21.70
2023-07-30T04:54:37.281Z,17.92
2023-07-30T04:57:04.421Z,20.33
2023-07-30T04:59:31.202Z,11.75
2023-07-30T05:01:57.966Z,20.60
2023-07-30T05:04:24.657Z,21.27
2023-07-30T05:06:51.346Z,11.05
2023-07-30T05:09:20.846Z,19.70
2023-07-30T05:11:47.945Z,15.98
2023-07-30T05:14:15.032Z,22.45
2023-07-30T05:16:41.759Z,16.08
2023-07-30T05:19:09.376Z,15.57
2023-07-30T05:21:36.387Z,17.40
2023-07-30T05:24:03.518Z,16.55
2023-07-30T05:26:30.313Z,18.42
2023-07-30T05:28:57.002Z,15.13
2023-07-30T05:31:25.950Z,21.20
2023-07-30T05:33:52.712Z,17.92
2023-07-30T05:36:19.430Z,17.17
2023-07-30T05:38:46.140Z,19.20
2023-07-30T05:41:12.873Z,15.90
2023-07-30T05:43:39.614Z,24.42
2023-07-30T05:46:06.319Z,15.73
2023-07-30T05:48:33.049Z,15.50
2023-07-30T05:50:59.850Z,23.48
2023-07-30T05:53:26.556Z,16.38
2023-07-30T05:55:53.319Z,17.48
2023-07-30T05:58:20.040Z,13.95
2023-07-30T06:00:46.868Z,15.00
2023-07-30T06:03:13.997Z,14.55
2023-07-30T06:05:44.129Z,19.05
2023-07-30T06:08:10.909Z,14.80
2023-07-30T06:10:38.610Z,14.00
2023-07-30T06:13:06.512Z,16.58
2023-07-30T06:15:34.070Z,21.42
2023-07-30T06:18:05.095Z,15.43
2023-07-30T06:20:31.976Z,17.20
2023-07-30T06:22:58.704Z,17.08
2023-07-30T06:25:25.476Z,18.15
2023-07-30T06:27:52.535Z,13.98
2023-07-30T06:30:21.540Z,19.08
2023-07-30T06:32:49.424Z,16.63
2023-07-30T06:35:16.253Z,19.60
2023-07-30T06:37:42.956Z,16.40
2023-07-30T06:40:09.860Z,15.35
2023-07-30T06:42:36.589Z,14.40
2023-07-30T06:45:03.601Z,22.15
2023-07-30T06:47:30.413Z,18.33
2023-07-30T06:49:57.137Z,13.45
2023-07-30T06:52:23.833Z,12.90
2023-07-30T06:54:50.536Z,12.90
2023-07-30T06:57:17.511Z,17.77
2023-07-30T06:59:44.366Z,17.10
2023-07-30T07:02:11.170Z,18.13
2023-07-30T07:04:37.912Z,16.98
2023-07-30T07:07:05.057Z,19.70
2023-07-30T07:09:31.800Z,16.25
2023-07-30T07:11:59.389Z,14.77
2023-07-30T07:14:26.157Z,17.27
2023-07-30T07:16:53.608Z,16.35
2023-07-30T07:19:20.454Z,15.07
2023-07-30T07:21:47.133Z,14.20
2023-07-30T07:24:13.859Z,19.08
2023-07-30T07:26:40.770Z,20.63
2023-07-30T07:29:07.576Z,14.45
2023-07-30T07:31:35.919Z,13.63
2023-07-30T07:34:03.052Z,15.98
2023-07-30T07:36:29.822Z,12.50
2023-07-30T07:38:56.563Z,20.63
2023-07-30T07:41:23.336Z,23.33
2023-07-30T07:43:50.268Z,11.82
2023-07-30T07:46:17.063Z,17.27
2023-07-30T07:48:44.640Z,18.08
2023-07-30T07:51:12.111Z,20.80
2023-07-30T07:53:41.304Z,15.00
2023-07-30T07:56:08.253Z,13.00
2023-07-30T07:58:35.827Z,17.55
2023-07-30T08:01:02.580Z,15.57
2023-07-30T08:03:29.525Z,16.80
2023-07-30T08:05:56.372Z,19.58
2023-07-30T08:08:26.450Z,18.88
2023-07-30T08:10:53.974Z,15.38
2023-07-30T08:13:21.429Z,24.48
2023-07-30T08:15:48.549Z,12.95
2023-07-30T08:18:15.410Z,22.45
2023-07-30T08:20:42.166Z,14.82
2023-07-30T08:23:09.001Z,14.00
2023-07-30T08:25:35.785Z,15.13
2023-07-30T08:28:02.592Z,16.15
2023-07-30T08:30:29.374Z,12.38
2023-07-30T08:32:56.214Z,22.38
2023-07-30T08:35:23.012Z,9.48
2023-07-30T08:37:49.788Z,14.65
2023-07-30T08:40:18.203Z,18.23
2023-07-30T08:42:45.417Z,9.82
2023-07-30T08:45:12.260Z,11.93
2023-07-30T08:47:41.907Z,12.95
2023-07-30T08:50:09.150Z,22.52
2023-07-30T08:52:37.087Z,8.68
2023-07-30T08:55:04.868Z,15.45
2023-07-30T08:57:31.759Z,15.88
2023-07-30T09:00:09.935Z,14.98
2023-07-30T09:02:44.497Z,13.27
2023-07-30T09:05:12.871Z,14.85
2023-07-30T09:07:39.786Z,12.98
2023-07-30T09:10:07.434Z,18.67
2023-07-30T09:12:35.792Z,14.48
2023-07-30T09:15:07.056Z,18.23
2023-07-30T09:17:34.993Z,15.20
2023-07-30T09:20:05.117Z,16.30
2023-07-30T09:22:41.270Z,11.93
2023-07-30T09:25:09.156Z,10.52
2023-07-30T09:27:35.936Z,12.23
2023-07-30T09:30:06.519Z,17.38
2023-07-30T09:32:35.094Z,11.95
2023-07-30T09:35:09.852Z,13.20
2023-07-30T09:37:41.578Z,12.23
2023-07-30T09:40:14.163Z,15.07
2023-07-30T09:42:47.575Z,15.05
2023-07-30T09:45:27.858Z,10.50
2023-07-30T09:47:57.638Z,15.95
2023-07-30T09:50:24.752Z,14.00
2023-07-30T09:52:51.684Z,16.48
2023-07-30T09:55:20.224Z,22.25
2023-07-30T09:57:47.126Z,12.93
2023-07-30T10:00:14.134Z,17.05
2023-07-30T10:02:42.327Z,11.75
2023-07-30T10:05:13.446Z,16.80
2023-07-30T10:07:43.297Z,11.02
2023-07-30T10:10:10.557Z,13.43
2023-07-30T10:12:39.161Z,10.88
2023-07-30T10:15:07.838Z,14.20
2023-07-30T10:17:34.867Z,15.93
2023-07-30T10:20:23.157Z,17.25
2023-07-30T10:22:53.311Z,20.02
2023-07-30T10:25:22.841Z,16.67
2023-07-30T10:27:51.615Z,14.90
2023-07-30T10:30:20.407Z,11.98
2023-07-30T10:32:56.293Z,14.32
2023-07-30T10:35:47.119Z,13.18
2023-07-30T10:38:18.128Z,12.35
2023-07-30T10:41:05.262Z,14.73
2023-07-30T10:43:37.986Z,12.77
2023-07-30T10:46:04.871Z,11.52
2023-07-30T10:48:39.088Z,15.00
2023-07-30T10:51:07.349Z,19.50
2023-07-30T10:53:34.419Z,11.85
2023-07-30T10:56:03.055Z,11.77
2023-07-30T10:58:31.818Z,11.57
2023-07-30T11:00:58.926Z,17.83
2023-07-30T11:03:29.677Z,9.45
2023-07-30T11:05:56.672Z,9.48
2023-07-30T11:08:37.374Z,22.30
2023-07-30T11:11:04.896Z,10.13
2023-07-30T11:13:40.508Z,14.10
2023-07-30T11:16:08.415Z,13.57
2023-07-30T11:18:36.464Z,13.70
2023-07-30T11:21:21.429Z,12.40
2023-07-30T11:23:48.354Z,14.00
2023-07-30T11:26:20.565Z,20.52
2023-07-30T11:28:47.802Z,13.98
2023-07-30T11:31:21.564Z,10.85
2023-07-30T11:33:49.422Z,12.05
2023-07-30T11:36:34.410Z,8.10
2023-07-30T11:39:01.941Z,12.52
2023-07-30T11:41:29.136Z,9.05
2023-07-30T11:43:56.299Z,12.35
2023-07-30T11:46:23.970Z,9.32
2023-07-30T11:48:53.532Z,11.57
2023-07-30T11:51:29.810Z,8.48
2023-07-30T11:53:58.694Z,11.63
2023-07-30T11:56:35.416Z,11.50
2023-07-30T11:59:06.258Z,10.50
2023-07-30T12:01:35.991Z,11.18
2023-07-30T12:04:04.502Z,13.55
2023-07-30T12:06:47.435Z,6.85
2023-07-30T12:09:16.332Z,8.40
2023-07-30T12:11:59.227Z,9.63
2023-07-30T12:17:01.709Z,12.00
2023-07-30T12:19:28.952Z,11.30
2023-07-30T12:21:55.763Z,11.75
2023-07-30T12:24:23.545Z,7.22
2023-07-30T12:26:52.007Z,6.95
2023-07-30T12:29:20.614Z,8.10
2023-07-30T12:31:48.428Z,11.27
2023-07-30T12:34:16.284Z,10.90
2023-07-30T12:36:43.031Z,9.98
2023-07-30T12:39:09.787Z,10.10
2023-07-30T12:41:36.956Z,8.25
2023-07-30T12:44:05.697Z,10.77
2023-07-30T12:46:34.067Z,8.27
2023-07-30T12:49:05.484Z,5.57
2023-07-30T12:51:33.096Z,10.67
2023-07-30T12:54:00.106Z,13.93
2023-07-30T12:56:27.064Z,9.55
2023-07-30T12:58:53.890Z,9.13
2023-07-30T13:01:20.706Z,10.82
2023-07-30T13:03:48.246Z,8.10
2023-07-30T13:06:15.106Z,7.90
2023-07-30T13:08:41.903Z,9.48
2023-07-30T13:11:08.644Z,10.07
2023-07-30T13:13:35.430Z,8.52
2023-07-30T13:16:02.932Z,13.80
2023-07-30T13:18:30.346Z,8.32
2023-07-30T13:20:57.166Z,8.98
2023-07-30T13:23:26.510Z,11.50
2023-07-30T13:25:53.281Z,8.10
2023-07-30T13:28:20.172Z,11.38
2023-07-30T13:30:47.130Z,12.32
2023-07-30T13:33:14.064Z,10.85
2023-07-30T13:35:40.809Z,10.30
2023-07-30T13:38:07.537Z,9.48
2023-07-30T13:40:34.273Z,10.27
2023-07-30T13:43:01.177Z,7.05
2023-07-30T13:45:27.986Z,8.20
2023-07-30T13:47:54.872Z,12.13
2023-07-30T13:50:21.767Z,9.30
2023-07-30T13:52:48.662Z,7.53
2023-07-30T13:55:17.568Z,11.25
2023-07-30T13:57:44.439Z,5.97
2023-07-30T14:00:11.770Z,6.40
2023-07-30T14:02:38.593Z,18.42
2023-07-30T14:05:05.732Z,9.00
2023-07-30T14:07:32.555Z,6.07
2023-07-30T14:09:59.287Z,6.03
2023-07-30T14:12:26.068Z,5.55
2023-07-30T14:14:52.869Z,6.80
2023-07-30T14:17:19.641Z,9.00
2023-07-30T14:19:46.364Z,7.18
2023-07-30T14:22:13.113Z,9.02
2023-07-30T14:24:41.097Z,11.60
2023-07-30T14:27:10.203Z,6.40
2023-07-30T14:29:37.006Z,4.78
2023-07-30T14:32:03.920Z,9.20
2023-07-30T14:34:30.776Z,9.95
2023-07-30T14:36:57.545Z,10.77
2023-07-30T14:39:24.306Z,7.80
2023-07-30T14:41:51.098Z,7.32
2023-07-30T14:44:18.580Z,10.90
2023-07-30T14:46:45.298Z,8.85
2023-07-30T14:49:12.060Z,6.13
2023-07-30T14:51:39.036Z,7.63
2023-07-30T14:54:05.972Z,4.30
2023-07-30T14:56:32.754Z,6.57
2023-07-30T14:58:59.540Z,7.35
2023-07-30T15:01:31.312Z,6.82
2023-07-30T15:03:58.186Z,4.20
2023-07-30T15:06:25.777Z,5.72
2023-07-30T15:08:52.492Z,4.68
2023-07-30T15:11:19.394Z,3.92
2023-07-30T15:13:46.103Z,4.10
2023-07-30T15:16:12.896Z,7.47
2023-07-30T15:18:39.698Z,4.97
2023-07-30T15:21:06.444Z,5.82
2023-07-30T15:23:33.139Z,8.25
2023-07-30T15:26:00.197Z,3.45
2023-07-30T15:28:27.116Z,9.27
2023-07-30T15:30:54.026Z,8.23
2023-07-30T15:33:20.782Z,8.30
2023-07-30T15:35:47.534Z,9.35
2023-07-30T15:38:14.787Z,12.50
2023-07-30T15:40:43.771Z,9.15
2023-07-30T15:43:11.866Z,11.52
2023-07-30T15:45:43.860Z,15.90
2023-07-30T15:48:11.036Z,11.80
2023-07-30T15:50:37.762Z,9.50
2023-07-30T15:53:04.598Z,6.50
2023-07-30T15:55:33.214Z,12.15
2023-07-30T15:58:00.922Z,11.05
2023-07-30T16:00:27.851Z,9.00
2023-07-30T16:02:54.714Z,10.45
2023-07-30T16:05:21.584Z,11.88
2023-07-30T16:07:50.815Z,13.98
2023-07-30T16:10:18.746Z,15.30
2023-07-30T16:12:45.577Z,15.50
2023-07-30T16:15:12.393Z,22.83
2023-07-30T16:17:39.208Z,14.45
2023-07-30T16:20:06.870Z,10.98
2023-07-30T16:22:33.656Z,10.02
2023-07-30T16:25:00.449Z,15.35
2023-07-30T16:27:27.261Z,13.65
2023-07-30T16:29:54.096Z,15.43
2023-07-30T16:32:20.894Z,12.82
2023-07-30T16:34:48.193Z,12.93
2023-07-30T16:37:19.952Z,12.13
2023-07-30T16:39:49.689Z,14.48
2023-07-30T16:42:19.460Z,11.95
2023-07-30T16:44:49.472Z,14.13
2023-07-30T16:47:16.452Z,10.52
2023-07-30T16:49:43.672Z,14.35
2023-07-30T16:52:10.428Z,18.88
2023-07-30T16:54:38.313Z,11.40
2023-07-30T16:57:05.427Z,10.35
2023-07-30T16:59:32.234Z,16.52
2023-07-30T17:02:01.050Z,17.95
2023-07-30T17:04:33.683Z,12.02
2023-07-30T17:07:00.648Z,13.35
2023-07-30T17:09:27.750Z,14.52
2023-07-30T17:11:57.242Z,12.95
2023-07-30T17:14:25.237Z,9.18
2023-07-30T17:16:52.081Z,15.25
2023-07-30T17:19:18.949Z,16.17
2023-07-30T17:21:46.717Z,16.02
2023-07-30T17:24:15.449Z,10.93
2023-07-30T17:26:44.383Z,10.85
2023-07-30T17:29:12.430Z,14.60
2023-07-30T17:31:39.462Z,9.85
2023-07-30T17:34:06.529Z,22.52
2023-07-30T17:36:35.906Z,16.75
2023-07-30T17:39:03.657Z,15.15
2023-07-30T17:41:30.811Z,23.75
2023-07-30T17:43:57.798Z,21.63
2023-07-30T17:46:24.763Z,19.55
2023-07-30T17:48:52.201Z,16.50
2023-07-30T17:51:19.407Z,13.50
2023-07-30T17:53:46.804Z,15.13
2023-07-30T17:56:13.978Z,21.98
2023-07-30T17:58:42.291Z,17.98
2023-07-30T18:01:09.244Z,19.75
2023-07-30T18:03:54.553Z,20.80
2023-07-30T18:06:21.546Z,22.15
2023-07-30T18:08:51.495Z,16.98
2023-07-30T18:11:18.776Z,22.77
2023-07-30T18:13:46.933Z,19.30
2023-07-30T18:16:14.533Z,20.13
2023-07-30T18:18:44.609Z,22.27
2023-07-30T18:21:11.491Z,17.05
2023-07-30T18:23:39.746Z,20.02
2023-07-30T18:26:07.385Z,26.58
2023-07-30T18:28:34.228Z,21.90
2023-07-30T18:31:06.788Z,25.38
2023-07-30T18:33:33.981Z,32.72
2023-07-30T18:36:01.267Z,21.33
2023-07-30T18:38:28.229Z,26.33
2023-07-30T18:40:55.171Z,28.65
2023-07-30T18:43:24.191Z,24.58
2023-07-30T18:45:51.183Z,27.25
2023-07-30T18:48:19.581Z,24.58
2023-07-30T18:50:53.391Z,28.13
2023-07-30T18:53:20.251Z,21.17
2023-07-30T18:55:47.298Z,26.77
2023-07-30T18:58:14.206Z,23.55
2023-07-30T19:00:41.209Z,19.02
2023-07-30T19:03:08.338Z,18.48
2023-07-30T19:05:35.628Z,27.60
2023-07-30T19:08:03.620Z,22.85
2023-07-30T19:10:30.590Z,21.77
2023-07-30T19:12:58.709Z,30.73
2023-07-30T19:15:26.211Z,22.73
2023-07-30T19:17:55.376Z,21.05
2023-07-30T19:20:23.940Z,21.15
2023-07-30T19:22:50.887Z,18.15
2023-07-30T19:25:21.999Z,21.38
2023-07-30T19:27:53.652Z,20.40
2023-07-30T19:30:20.863Z,20.23
2023-07-30T19:32:49.982Z,19.73
2023-07-30T19:35:16.820Z,18.98
2023-07-30T19:37:43.628Z,21.13
2023-07-30T19:40:10.963Z,16.13
2023-07-30T19:42:37.931Z,18.60
2023-07-30T19:45:05.055Z,19.55
2023-07-30T19:47:35.641Z,29.48
2023-07-30T19:50:05.054Z,17.90
2023-07-30T19:52:36.638Z,17.30
2023-07-30T19:55:03.930Z,18.48
2023-07-30T19:57:33.098Z,22.98
2023-07-30T20:00:00.168Z,19.30
2023-07-30T20:02:27.058Z,21.88
2023-07-30T20:04:53.981Z,16.73
2023-07-30T20:07:20.744Z,20.10
2023-07-30T20:09:49.765Z,17.35
2023-07-30T20:12:16.533Z,18.85
2023-07-30T20:14:43.255Z,21.77
2023-07-30T20:17:10.021Z,13.55
2023-07-30T20:19:36.813Z,13.50
2023-07-30T20:22:03.655Z,19.05
2023-07-30T20:24:30.714Z,16.42
2023-07-30T20:26:57.553Z,17.10
2023-07-30T20:29:24.294Z,12.10
2023-07-30T20:31:51.078Z,17.98
2023-07-30T20:34:17.870Z,16.30
2023-07-30T20:36:44.727Z,14.60
2023-07-30T20:39:11.484Z,15.20
2023-07-30T20:41:38.269Z,18.77
2023-07-30T20:44:05.088Z,18.10
2023-07-30T20:46:31.998Z,15.82
2023-07-30T20:48:58.728Z,17.38
2023-07-30T20:51:25.581Z,14.23
2023-07-30T20:53:52.287Z,17.65
2023-07-30T20:56:19.268Z,13.02
2023-07-30T20:58:46.473Z,15.10
2023-07-30T21:01:13.230Z,14.63
2023-07-30T21:03:42.007Z,16.08
2023-07-30T21:06:08.870Z,14.75
2023-07-30T21:08:35.698Z,14.27
2023-07-30T21:11:02.594Z,15.88
2023-07-30T21:13:29.533Z,12.30
2023-07-30T21:15:56.269Z,12.32
2023-07-30T21:18:28.529Z,16.95
2023-07-30T21:20:55.275Z,15.80
2023-07-30T21:23:24.263Z,19.33
2023-07-30T21:25:53.692Z,15.10
2023-07-30T21:28:20.537Z,10.48
2023-07-30T21:30:47.335Z,13.25
2023-07-30T21:33:14.156Z,11.38
2023-07-30T21:35:40.928Z,16.17
2023-07-30T21:38:11.004Z,12.95
2023-07-30T21:40:37.729Z,15.48
2023-07-30T21:43:04.534Z,17.08
2023-07-30T21:45:31.417Z,14.88
2023-07-30T21:47:58.222Z,23.83
2023-07-30T21:50:24.979Z,14.15
2023-07-30T21:52:52.146Z,22.00
2023-07-30T21:55:18.957Z,16.80
2023-07-30T21:57:47.605Z,16.20
2023-07-30T22:00:14.729Z,18.63
2023-07-30T22:02:41.724Z,16.40
2023-07-30T22:05:08.706Z,15.90
2023-07-30T22:07:35.406Z,12.50
2023-07-30T22:10:02.296Z,14.35
2023-07-30T22:12:29.031Z,13.80
2023-07-30T22:14:55.813Z,14.63
2023-07-30T22:17:22.615Z,13.27
2023-07-30T22:19:49.407Z,13.80
2023-07-30T22:22:16.260Z,14.23
2023-07-30T22:24:43.070Z,13.95
2023-07-30T22:27:09.818Z,8.82
2023-07-30T22:29:36.543Z,13.23
2023-07-30T22:32:03.485Z,14.52
2023-07-30T22:34:30.272Z,9.13
2023-07-30T22:36:57.010Z,14.88
2023-07-30T22:39:23.742Z,14.85
2023-07-30T22:41:50.532Z,13.60
2023-07-30T22:44:17.273Z,9.15
2023-07-30T22:46:44.169Z,13.40
2023-07-30T22:49:11.091Z,15.32
2023-07-30T22:51:37.839Z,10.15
2023-07-30T22:54:04.615Z,9.25
2023-07-30T22:56:31.403Z,12.93
2023-07-30T22:58:58.138Z,9.90
2023-07-30T23:01:24.932Z,11.82
2023-07-30T23:03:51.926Z,8.27
2023-07-30T23:06:18.711Z,8.93
2023-07-30T23:08:46.829Z,11.23
2023-07-30T23:11:13.613Z,16.38
2023-07-30T23:13:40.453Z,15.80
2023-07-30T23:16:09.523Z,10.65
2023-07-30T23:18:37.552Z,9.85
2023-07-30T23:21:06.100Z,7.28
2023-07-30T23:23:32.925Z,12.00
2023-07-30T23:25:59.684Z,9.50
2023-07-30T23:28:26.394Z,10.52
2023-07-30T23:30:55.205Z,7.57
2023-07-30T23:33:21.963Z,5.07
2023-07-30T23:35:48.967Z,8.40
2023-07-30T23:38:15.688Z,10.23
2023-07-30T23:40:44.849Z,9.00
2023-07-30T23:43:11.673Z,12.48
2023-07-30T23:45:38.443Z,7.43
2023-07-30T23:48:08.000Z,8.52
2023-07-30T23:50:34.889Z,8.02
2023-07-30T23:53:01.660Z,11.30
2023-07-30T23:55:29.935Z,8.60
2023-07-30T23:57:56.702Z,8.32
